Time;durP1;ratioP1;P1;durP2;ratioP2;P2;SDS_P1;SDS_P2;PMS_P1;PMS_P2;Temp;Humidity;BMP_temperature;BMP_pressure;BME280_temperature;BME280_humidity;BME280_pressure;Samples;Min_cycle;Max_cycle;Signal;HPM_P1;HPM_P2
2022/10/06 00:00:03;;;;;;;;;;;16.30;99.90;16.40;100604.00;;;;345913;28;87966;-91
2022/10/06 00:00:15;;;;;;;;;;;16.30;99.90;16.50;100600.00;;;;343935;28;82361;-91
2022/10/06 00:00:26;;;;;;;;;;;16.30;99.90;16.60;100604.00;;;;346150;28;89755;-90
2022/10/06 00:00:38;;;;;;;;;;;16.30;99.90;16.50;100599.00;;;;345124;28;82627;-92
2022/10/06 00:00:51;;;;;;;;;;;16.30;99.90;16.50;100597.00;;;;343565;28;89028;-91
2022/10/06 00:01:04;;;;;;;;;;;16.30;99.90;16.50;100601.00;;;;345580;28;83902;-91
2022/10/06 00:01:17;;;;;;;;;;;16.30;99.90;16.50;100608.00;;;;345994;28;89355;-92
2022/10/06 00:01:29;;;;;;;;;;;16.30;99.90;16.50;100611.00;;;;344152;28;83381;-91
2022/10/06 00:01:40;;;;;;;;;;;16.30;99.90;16.50;100603.00;;;;345244;28;89315;-92
2022/10/06 00:01:52;;;;;;;;;;;16.30;99.90;16.50;100606.00;;;;344208;28;82452;-90
2022/10/06 00:02:04;;;;;;;;;;;16.30;99.90;16.50;100611.00;;;;340895;28;90676;-91
2022/10/06 00:02:17;;;;;;;;;;;16.30;99.90;16.50;100611.00;;;;345482;28;83386;-92
2022/10/06 00:02:33;;;;;;;;;;;16.30;99.90;16.50;100600.00;;;;346371;28;87687;-92
2022/10/06 00:02:45;;;;;;;;;;;16.30;99.90;16.50;100615.00;;;;345809;28;82430;-92
2022/10/06 00:02:57;;;;;;;;;;;16.30;99.90;16.50;100604.00;;;;343763;28;88175;-91
2022/10/06 00:03:09;;;;;;;;;;;16.30;99.90;16.50;100608.00;;;;345520;28;82461;-91
2022/10/06 00:03:21;;;;;;;;;;;16.30;99.90;16.50;100611.00;;;;343787;28;89033;-92
2022/10/06 00:03:33;;;;;;;;;;;16.30;99.90;16.40;100607.00;;;;341324;28;83270;-92
2022/10/06 00:03:45;;;;;;;;;;;16.30;99.90;16.40;100603.00;;;;347406;28;90154;-91
2022/10/06 00:03:57;;;;;;;;;;;16.30;99.90;16.40;100602.00;;;;345181;28;82529;-91
2022/10/06 00:04:08;;;;;;;;;;;16.30;99.90;16.40;100606.00;;;;342603;28;86444;-90
2022/10/06 00:04:20;;;;;;;;;;;16.30;99.90;16.50;100607.00;;;;344041;28;83330;-91
2022/10/06 00:04:32;;;;;;;;;;;16.30;99.90;16.40;100606.00;;;;344914;28;91645;-91
2022/10/06 00:04:45;;;;;;;;;;;16.30;99.90;16.40;100604.00;;;;346662;28;82382;-91
2022/10/06 00:04:57;;;;;;;;;;;16.30;99.90;16.50;100604.00;;;;346207;28;88718;-91
2022/10/06 00:05:09;;;;;;;;;;;16.30;99.90;16.50;100610.00;;;;343840;28;82598;-91
2022/10/06 00:05:21;;;;;;;;;;;16.30;99.90;16.50;100606.00;;;;344689;28;88231;-91
2022/10/06 00:05:33;;;;;;;;;;;16.30;99.90;16.50;100607.00;;;;348336;28;82412;-91
2022/10/06 00:05:44;;;;;;;;;;;16.30;99.90;16.40;100603.00;;;;343650;28;86600;-91
2022/10/06 00:06:00;;;;;;;;;;;16.20;99.90;16.40;100607.00;;;;345198;28;83439;-92
2022/10/06 00:06:13;;;;;;;;;;;16.20;99.90;16.40;100610.00;;;;344554;28;87319;-91
2022/10/06 00:06:25;;;;;;;;;;;16.30;99.90;16.40;100613.00;;;;343214;28;83657;-91
2022/10/06 00:06:37;;;;;;;;;;;16.30;99.90;16.40;100610.00;;;;346066;28;87704;-91
2022/10/06 00:06:49;;;;;;;;;;;16.30;99.90;16.40;100610.00;;;;344136;28;82471;-90
2022/10/06 00:07:01;;;;;;;;;;;16.30;99.90;16.40;100620.00;;;;343459;28;88335;-91
2022/10/06 00:07:13;;;;;;;;;;;16.30;99.90;16.50;100612.00;;;;345207;28;83416;-91
2022/10/06 00:07:25;;;;;;;;;;;16.30;99.90;16.50;100611.00;;;;343577;28;88073;-90
2022/10/06 00:07:37;;;;;;;;;;;16.20;99.90;16.50;100608.00;;;;342531;28;82646;-92
2022/10/06 00:07:49;;;;;;;;;;;16.30;99.90;16.50;100612.00;;;;343097;28;92435;-91
2022/10/06 00:08:01;;;;;;;;;;;16.30;99.90;16.50;100618.00;;;;348007;28;82561;-92
2022/10/06 00:08:13;;;;;;;;;;;16.30;99.90;16.50;100614.00;;;;343452;28;90217;-90
2022/10/06 00:08:25;;;;;;;;;;;16.30;99.90;16.50;100612.00;;;;344708;28;82520;-92
2022/10/06 00:08:38;;;;;;;;;;;16.30;99.90;16.50;100607.00;;;;344849;28;88359;-91
2022/10/06 00:08:50;;;;;;;;;;;16.30;99.90;16.50;100615.00;;;;347877;28;82585;-92
2022/10/06 00:09:02;;;;;;;;;;;16.30;99.90;16.50;100610.00;;;;343128;28;91336;-91
2022/10/06 00:09:14;;;;;;;;;;;16.30;99.90;16.60;100610.00;;;;343869;28;83370;-91
2022/10/06 00:09:26;;;;;;;;;;;16.20;99.90;16.60;100609.00;;;;346015;28;88058;-90
2022/10/06 00:09:37;;;;;;;;;;;16.30;99.90;16.60;100611.00;;;;345121;28;83503;-91
2022/10/06 00:09:49;;;;;;;;;;;16.20;99.90;16.60;100607.00;;;;340265;28;88273;-91
2022/10/06 00:10:01;;;;;;;;;;;16.30;99.90;16.70;100612.00;;;;343976;28;83508;-93
2022/10/06 00:10:12;;;;;;;;;;;16.30;99.90;16.60;100610.00;;;;344927;28;86799;-92
2022/10/06 00:10:24;;;;;;;;;;;16.30;99.90;16.60;100602.00;;;;343901;28;82579;-91
2022/10/06 00:10:36;;;;;;;;;;;16.30;99.90;16.60;100610.00;;;;346468;28;86615;-91
2022/10/06 00:10:48;;;;;;;;;;;16.30;99.90;16.70;100598.00;;;;344809;28;83871;-91
2022/10/06 00:11:00;;;;;;;;;;;16.30;99.90;16.70;100604.00;;;;341816;28;90984;-91
2022/10/06 00:11:12;;;;;;;;;;;16.30;99.90;16.70;100603.00;;;;342645;28;83320;-91
2022/10/06 00:11:24;;;;;;;;;;;16.30;99.90;16.60;100610.00;;;;346355;28;89472;-91
2022/10/06 00:11:36;;;;;;;;;;;16.30;99.90;16.70;100608.00;;;;345152;28;83438;-91
2022/10/06 00:11:48;;;;;;;;;;;16.30;99.90;16.70;100612.00;;;;344181;28;90833;-89
2022/10/06 00:11:59;;;;;;;;;;;16.30;99.90;16.70;100605.00;;;;346494;28;83512;-92
2022/10/06 00:12:12;;;;;;;;;;;16.30;99.90;16.60;100601.00;;;;344629;28;90642;-91
2022/10/06 00:12:23;;;;;;;;;;;16.40;99.90;16.60;100600.00;;;;346557;28;82629;-91
2022/10/06 00:12:45;;;;;;;;;;;16.30;99.90;16.60;100612.00;;;;344645;28;89207;-92
2022/10/06 00:12:57;;;;;;;;;;;16.30;99.90;16.50;100609.00;;;;348441;28;82454;-92
2022/10/06 00:13:09;;;;;;;;;;;16.40;99.90;16.50;100603.00;;;;346131;28;91188;-92
2022/10/06 00:13:22;;;;;;;;;;;16.30;99.90;16.60;100607.00;;;;345258;28;83471;-91
2022/10/06 00:13:34;;;;;;;;;;;16.30;99.90;16.60;100606.00;;;;343183;28;90595;-92
2022/10/06 00:13:46;;;;;;;;;;;16.40;99.90;16.50;100603.00;;;;347896;28;82581;-91
2022/10/06 00:13:57;;;;;;;;;;;16.30;99.90;16.50;100603.00;;;;344433;28;90447;-92
2022/10/06 00:14:09;;;;;;;;;;;16.30;99.90;16.50;100602.00;;;;346902;28;83374;-91
2022/10/06 00:14:21;;;;;;;;;;;16.40;99.90;16.50;100610.00;;;;343651;28;88419;-92
2022/10/06 00:14:32;;;;;;;;;;;16.30;99.90;16.50;100610.00;;;;342690;28;83592;-91
2022/10/06 00:14:44;;;;;;;;;;;16.30;99.90;16.60;100597.00;;;;344972;28;89303;-91
2022/10/06 00:14:56;;;;;;;;;;;16.30;99.90;16.50;100605.00;;;;346708;28;83457;-92
2022/10/06 00:15:09;;;;;;;;;;;16.30;99.90;16.50;100605.00;;;;343175;28;92883;-90
2022/10/06 00:15:28;;;;;;;;;;;16.30;99.90;16.40;100608.00;;;;342668;28;83454;-91
2022/10/06 00:15:40;;;;;;;;;;;16.30;99.90;16.40;100613.00;;;;341337;28;87193;-91
2022/10/06 00:15:52;;;;;;;;;;;16.30;99.90;16.40;100609.00;;;;348172;28;82627;-91
2022/10/06 00:16:12;;;;;;;;;;;16.30;99.90;16.50;100609.00;;;;346186;28;86842;-91
2022/10/06 00:16:24;;;;;;;;;;;16.30;99.90;16.60;100609.00;;;;342510;28;82532;-91
2022/10/06 00:16:35;;;;;;;;;;;16.30;99.90;16.60;100611.00;;;;343058;28;91733;-91
2022/10/06 00:16:47;;;;;;;;;;;16.30;99.90;16.60;100612.00;;;;346687;28;83411;-92
2022/10/06 00:16:59;;;;;;;;;;;16.30;99.90;16.60;100610.00;;;;345068;28;88122;-91
2022/10/06 00:17:10;;;;;;;;;;;16.30;99.90;16.50;100613.00;;;;341203;28;83204;-93
2022/10/06 00:17:23;;;;;;;;;;;16.30;99.90;16.50;100607.00;;;;345960;28;91677;-92
2022/10/06 00:17:34;;;;;;;;;;;16.30;99.90;16.50;100606.00;;;;345398;28;82635;-91
2022/10/06 00:17:46;;;;;;;;;;;16.30;99.90;16.50;100607.00;;;;342045;28;90358;-92
2022/10/06 00:17:58;;;;;;;;;;;16.30;99.90;16.50;100606.00;;;;345615;28;82660;-92
2022/10/06 00:18:10;;;;;;;;;;;16.30;99.90;16.40;100607.00;;;;345039;28;86607;-91
2022/10/06 00:18:21;;;;;;;;;;;16.30;99.90;16.40;100600.00;;;;340984;28;82664;-92
2022/10/06 00:18:34;;;;;;;;;;;16.20;99.90;16.40;100601.00;;;;346200;28;87492;-91
2022/10/06 00:18:46;;;;;;;;;;;16.20;99.90;16.30;100606.00;;;;345247;28;82591;-91
2022/10/06 00:18:58;;;;;;;;;;;16.30;99.90;16.30;100612.00;;;;344919;28;87075;-91
2022/10/06 00:19:09;;;;;;;;;;;16.20;99.90;16.40;100604.00;;;;348108;28;82495;-92
2022/10/06 00:19:21;;;;;;;;;;;16.30;99.90;16.40;100602.00;;;;344496;28;93213;-91
2022/10/06 00:19:33;;;;;;;;;;;16.20;99.90;16.50;100611.00;;;;342231;28;82702;-92
2022/10/06 00:19:44;;;;;;;;;;;16.20;99.90;16.50;100607.00;;;;346291;28;88554;-92
2022/10/06 00:19:56;;;;;;;;;;;16.30;99.90;16.50;100601.00;;;;347821;27;83606;-92
2022/10/06 00:20:08;;;;;;;;;;;16.20;99.90;16.50;100595.00;;;;346166;28;88632;-91
2022/10/06 00:20:20;;;;;;;;;;;16.30;99.90;16.40;100604.00;;;;342873;28;82639;-92
2022/10/06 00:20:32;;;;;;;;;;;16.30;99.90;16.30;100598.00;;;;344713;28;90964;-92
2022/10/06 00:20:44;;;;;;;;;;;16.30;99.90;16.40;100598.00;;;;346581;28;83504;-91
2022/10/06 00:20:57;;;;;;;;;;;16.20;99.90;16.50;100606.00;;;;346113;28;90590;-92
2022/10/06 00:21:09;;;;;;;;;;;16.20;99.90;16.50;100595.00;;;;344018;28;82407;-92
2022/10/06 00:21:20;;;;;;;;;;;16.20;99.90;16.50;100600.00;;;;343384;28;90064;-91
2022/10/06 00:21:32;;;;;;;;;;;16.30;99.90;16.50;100598.00;;;;346858;28;82411;-92
2022/10/06 00:21:44;;;;;;;;;;;16.20;99.90;16.50;100598.00;;;;346349;28;89459;-92
2022/10/06 00:21:56;;;;;;;;;;;16.20;99.90;16.40;100594.00;;;;345170;28;82580;-92
2022/10/06 00:22:08;;;;;;;;;;;16.30;99.90;16.40;100600.00;;;;342163;28;88568;-92
2022/10/06 00:22:20;;;;;;;;;;;16.20;99.90;16.40;100582.00;;;;345364;28;82449;-92
2022/10/06 00:22:42;;;;;;;;;;;16.30;99.90;16.40;100599.00;;;;343483;28;88401;-91
2022/10/06 00:22:55;;;;;;;;;;;16.20;99.90;16.30;100597.00;;;;345311;28;83414;-92
2022/10/06 00:23:07;;;;;;;;;;;16.20;99.90;16.30;100599.00;;;;342181;28;87878;-92
2022/10/06 00:23:19;;;;;;;;;;;16.20;99.90;16.20;100602.00;;;;345448;28;83354;-92
2022/10/06 00:23:31;;;;;;;;;;;16.20;99.90;16.20;100600.00;;;;346290;28;90053;-92
2022/10/06 00:23:43;;;;;;;;;;;16.20;99.90;16.10;100593.00;;;;342477;28;82652;-92
2022/10/06 00:23:55;;;;;;;;;;;16.20;99.90;16.10;100602.00;;;;343500;28;88678;-91
2022/10/06 00:24:07;;;;;;;;;;;16.20;99.90;16.20;100600.00;;;;346530;28;83322;-91
2022/10/06 00:24:19;;;;;;;;;;;16.20;99.90;16.20;100599.00;;;;340950;28;89777;-92
2022/10/06 00:24:31;;;;;;;;;;;16.20;99.90;16.30;100597.00;;;;345616;28;82408;-91
2022/10/06 00:24:42;;;;;;;;;;;16.20;99.90;16.30;100596.00;;;;344587;28;89850;-91
2022/10/06 00:24:54;;;;;;;;;;;16.20;99.90;16.30;100591.00;;;;344976;28;82595;-91
2022/10/06 00:25:07;;;;;;;;;;;16.20;99.90;16.30;100593.00;;;;343583;28;88333;-91
2022/10/06 00:25:20;;;;;;;;;;;16.20;99.90;16.40;100599.00;;;;345104;28;83410;-92
2022/10/06 00:25:32;;;;;;;;;;;16.20;99.90;16.30;100600.00;;;;340856;28;88651;-92
2022/10/06 00:25:43;;;;;;;;;;;16.10;99.90;16.30;100593.00;;;;341130;28;83380;-92
2022/10/06 00:25:55;;;;;;;;;;;16.20;99.90;16.20;100595.00;;;;348509;27;89522;-92
2022/10/06 00:26:15;;;;;;;;;;;16.20;99.90;16.20;100588.00;;;;344927;28;83589;-92
2022/10/06 00:26:27;;;;;;;;;;;16.10;99.90;16.10;100583.00;;;;344670;28;88528;-89
2022/10/06 00:26:39;;;;;;;;;;;16.10;99.90;16.10;100592.00;;;;345425;28;83816;-92
2022/10/06 00:26:51;;;;;;;;;;;16.10;99.90;16.20;100595.00;;;;343566;28;88415;-91
2022/10/06 00:27:03;;;;;;;;;;;16.10;99.90;16.20;100587.00;;;;344000;28;83312;-92
2022/10/06 00:27:14;;;;;;;;;;;16.10;99.90;16.20;100589.00;;;;346305;28;89288;-91
2022/10/06 00:27:32;;;;;;;;;;;16.10;99.90;16.20;100595.00;;;;345435;28;82536;-92
2022/10/06 00:27:48;;;;;;;;;;;16.10;99.90;16.30;100591.00;;;;340782;28;89017;-91
2022/10/06 00:27:59;;;;;;;;;;;16.10;99.90;16.30;100589.00;;;;343936;28;83353;-91
2022/10/06 00:28:11;;;;;;;;;;;16.10;99.90;16.30;100577.00;;;;346159;28;90526;-92
2022/10/06 00:28:23;;;;;;;;;;;16.10;99.90;16.30;100588.00;;;;343522;28;83483;-92
2022/10/06 00:28:35;;;;;;;;;;;16.10;99.90;16.30;100591.00;;;;343277;28;90575;-91
2022/10/06 00:28:47;;;;;;;;;;;16.10;99.90;16.30;100580.00;;;;346486;28;83499;-92
2022/10/06 00:28:59;;;;;;;;;;;16.10;99.90;16.30;100593.00;;;;341934;28;89366;-92
2022/10/06 00:29:12;;;;;;;;;;;16.10;99.90;16.40;100595.00;;;;345258;28;83303;-91
2022/10/06 00:29:24;;;;;;;;;;;16.10;99.90;16.40;100599.00;;;;344689;28;89348;-92
2022/10/06 00:29:36;;;;;;;;;;;16.10;99.90;16.40;100591.00;;;;343994;28;83488;-91
2022/10/06 00:29:47;;;;;;;;;;;16.10;99.90;16.30;100592.00;;;;346339;28;89351;-88
2022/10/06 00:29:59;;;;;;;;;;;16.10;99.90;16.40;100595.00;;;;346841;28;82607;-92
2022/10/06 00:30:15;;;;;;;;;;;16.10;99.90;16.40;100586.00;;;;346059;28;89161;-91
2022/10/06 00:30:27;;;;;;;;;;;16.10;99.90;16.40;100597.00;;;;344878;28;83497;-91
2022/10/06 00:30:39;;;;;;;;;;;16.10;99.90;16.20;100599.00;;;;345729;28;88099;-92
2022/10/06 00:30:55;;;;;;;;;;;16.10;99.90;16.20;100593.00;;;;345279;28;83242;-92
2022/10/06 00:31:07;;;;;;;;;;;16.10;99.90;16.20;100594.00;;;;343459;28;88386;-91
2022/10/06 00:31:19;;;;;;;;;;;16.00;99.90;16.20;100586.00;;;;346633;28;82565;-91
2022/10/06 00:31:31;;;;;;;;;;;16.10;99.90;16.30;100595.00;;;;344453;28;89333;-91
2022/10/06 00:31:43;;;;;;;;;;;16.10;99.90;16.20;100594.00;;;;343592;28;82613;-91
2022/10/06 00:31:54;;;;;;;;;;;16.00;99.90;16.20;100599.00;;;;344696;28;88413;-91
2022/10/06 00:32:08;;;;;;;;;;;16.10;99.90;16.20;100600.00;;;;347714;28;82623;-91
2022/10/06 00:32:20;;;;;;;;;;;16.00;99.90;16.20;100597.00;;;;346362;28;88749;-91
2022/10/06 00:32:35;;;;;;;;;;;16.00;99.90;16.20;100595.00;;;;345492;28;82476;-91
2022/10/06 00:32:58;;;;;;;;;;;16.10;99.90;16.20;100596.00;;;;347272;28;89607;-91
2022/10/06 00:33:15;;;;;;;;;;;16.00;99.90;16.20;100597.00;;;;345249;28;82580;-91
2022/10/06 00:33:26;;;;;;;;;;;16.00;99.90;16.20;100604.00;;;;342190;28;89890;-91
2022/10/06 00:33:38;;;;;;;;;;;16.00;99.90;16.20;100599.00;;;;345212;28;83310;-92
2022/10/06 00:33:50;;;;;;;;;;;16.00;99.90;16.20;100608.00;;;;343324;28;89113;-92
2022/10/06 00:34:02;;;;;;;;;;;16.00;99.90;16.20;100601.00;;;;345019;28;83548;-92
2022/10/06 00:34:13;;;;;;;;;;;16.00;99.90;16.20;100598.00;;;;347240;28;91330;-92
2022/10/06 00:34:25;;;;;;;;;;;16.00;99.90;16.20;100604.00;;;;342369;28;82592;-91
2022/10/06 00:34:37;;;;;;;;;;;16.00;99.90;16.20;100603.00;;;;343317;28;91955;-92
2022/10/06 00:34:52;;;;;;;;;;;16.00;99.90;16.20;100602.00;;;;347113;28;82500;-92
2022/10/06 00:35:05;;;;;;;;;;;16.00;99.90;16.20;100604.00;;;;343141;28;92135;-92
2022/10/06 00:35:17;;;;;;;;;;;16.00;99.90;16.20;100596.00;;;;342372;28;82525;-91
2022/10/06 00:35:32;;;;;;;;;;;16.00;99.90;16.30;100604.00;;;;344570;28;89520;-91
2022/10/06 00:35:44;;;;;;;;;;;16.00;99.90;16.30;100604.00;;;;339608;28;83623;-91
2022/10/06 00:35:56;;;;;;;;;;;16.00;99.90;16.40;100604.00;;;;336761;28;89864;-91
2022/10/06 00:36:08;;;;;;;;;;;16.00;99.90;16.40;100600.00;;;;345112;28;82608;-91
2022/10/06 00:36:20;;;;;;;;;;;16.00;99.90;16.50;100605.00;;;;346140;28;89130;-92
2022/10/06 00:36:31;;;;;;;;;;;16.00;99.90;16.30;100604.00;;;;346619;28;83464;-90
2022/10/06 00:36:43;;;;;;;;;;;16.10;99.90;16.20;100602.00;;;;348823;27;87552;-92
2022/10/06 00:36:55;;;;;;;;;;;16.00;99.90;16.30;100603.00;;;;345236;28;82643;-91
2022/10/06 00:37:07;;;;;;;;;;;16.00;99.90;16.40;100602.00;;;;340599;28;91711;-91
2022/10/06 00:37:18;;;;;;;;;;;16.00;99.90;16.30;100602.00;;;;345113;28;83567;-91
2022/10/06 00:37:33;;;;;;;;;;;16.10;99.90;16.40;100611.00;;;;347642;28;90610;-92
2022/10/06 00:37:45;;;;;;;;;;;16.10;99.90;16.50;100606.00;;;;346770;28;82488;-91
2022/10/06 00:37:57;;;;;;;;;;;16.10;99.90;16.50;100608.00;;;;343156;28;89000;-92
2022/10/06 00:38:12;;;;;;;;;;;16.10;99.90;16.40;100598.00;;;;345312;28;82562;-91
2022/10/06 00:38:24;;;;;;;;;;;16.10;99.90;16.40;100605.00;;;;341581;28;90407;-92
2022/10/06 00:38:36;;;;;;;;;;;16.10;99.90;16.30;100609.00;;;;345128;28;83534;-92
2022/10/06 00:38:48;;;;;;;;;;;16.10;99.90;16.30;100608.00;;;;343539;28;88171;-91
2022/10/06 00:39:00;;;;;;;;;;;16.10;99.90;16.20;100610.00;;;;346358;28;83482;-92
2022/10/06 00:39:12;;;;;;;;;;;16.10;99.90;16.20;100610.00;;;;342757;28;90303;-92
2022/10/06 00:39:23;;;;;;;;;;;16.10;99.90;16.20;100611.00;;;;345485;28;82413;-91
2022/10/06 00:39:35;;;;;;;;;;;16.10;99.90;16.30;100593.00;;;;344309;28;91876;-92
2022/10/06 00:39:47;;;;;;;;;;;16.10;99.90;16.30;100608.00;;;;345530;28;82648;-92
2022/10/06 00:39:59;;;;;;;;;;;16.10;99.90;16.40;100613.00;;;;343628;28;87806;-91
2022/10/06 00:40:11;;;;;;;;;;;16.10;99.90;16.40;100612.00;;;;342852;28;82430;-92
2022/10/06 00:40:22;;;;;;;;;;;16.10;99.90;16.40;100609.00;;;;342136;28;91558;-91
2022/10/06 00:40:35;;;;;;;;;;;16.10;99.90;16.30;100612.00;;;;344155;28;82641;-92
2022/10/06 00:40:48;;;;;;;;;;;16.10;99.90;16.20;100605.00;;;;343033;28;88081;-92
2022/10/06 00:40:59;;;;;;;;;;;16.10;99.90;16.30;100610.00;;;;342995;28;83400;-92
2022/10/06 00:41:12;;;;;;;;;;;16.10;99.90;16.20;100605.00;;;;346240;28;91642;-91
2022/10/06 00:41:24;;;;;;;;;;;16.10;99.90;16.20;100616.00;;;;342993;28;82535;-91
2022/10/06 00:41:37;;;;;;;;;;;16.10;99.90;16.30;100604.00;;;;345289;28;86607;-91
2022/10/06 00:41:49;;;;;;;;;;;16.10;99.90;16.30;100610.00;;;;345337;28;83463;-92
2022/10/06 00:42:01;;;;;;;;;;;16.10;99.90;16.30;100615.00;;;;345021;28;88115;-92
2022/10/06 00:42:24;;;;;;;;;;;16.10;99.90;16.20;100608.00;;;;347202;28;82403;-91
2022/10/06 00:42:51;;;;;;;;;;;16.10;99.90;16.20;100615.00;;;;346500;28;89435;-92
2022/10/06 00:43:04;;;;;;;;;;;16.10;99.90;16.30;100608.00;;;;345502;28;83069;-92
2022/10/06 00:43:41;;;;;;;;;;;16.10;99.90;16.40;100609.00;;;;340704;28;90695;-91
2022/10/06 00:43:55;;;;;;;;;;;16.10;99.90;16.40;100605.00;;;;343994;28;83430;-91
2022/10/06 00:44:07;;;;;;;;;;;16.10;99.90;16.20;100617.00;;;;344564;28;88347;-91
2022/10/06 00:44:19;;;;;;;;;;;16.10;99.90;16.20;100613.00;;;;343808;28;83521;-91
2022/10/06 00:44:31;;;;;;;;;;;16.10;99.90;16.10;100612.00;;;;343623;28;88253;-92
2022/10/06 00:44:42;;;;;;;;;;;16.10;99.90;16.10;100605.00;;;;345178;28;82631;-91
2022/10/06 00:44:54;;;;;;;;;;;16.10;99.90;16.10;100613.00;;;;344389;28;90956;-92
2022/10/06 00:45:06;;;;;;;;;;;16.10;99.90;16.10;100615.00;;;;342786;28;82574;-91
2022/10/06 00:45:22;;;;;;;;;;;16.10;99.90;16.20;100617.00;;;;347262;28;90196;-92
2022/10/06 00:45:39;;;;;;;;;;;16.10;99.90;16.20;100613.00;;;;347121;28;82407;-91
2022/10/06 00:45:50;;;;;;;;;;;16.00;99.90;16.20;100615.00;;;;340589;28;90331;-91
2022/10/06 00:46:02;;;;;;;;;;;16.10;99.90;16.10;100614.00;;;;345266;28;82462;-92
2022/10/06 00:46:28;;;;;;;;;;;16.10;99.90;16.10;100621.00;;;;346405;28;86589;-91
2022/10/06 00:46:44;;;;;;;;;;;16.00;99.90;16.10;100623.00;;;;345462;28;83137;-92
2022/10/06 00:46:55;;;;;;;;;;;16.00;99.90;16.20;100617.00;;;;344496;28;88103;-92
2022/10/06 00:47:07;;;;;;;;;;;16.00;99.90;16.20;100617.00;;;;342409;28;82568;-91
2022/10/06 00:47:20;;;;;;;;;;;16.00;99.90;16.20;100613.00;;;;342215;28;88041;-91
2022/10/06 00:47:31;;;;;;;;;;;16.00;99.90;16.20;100618.00;;;;345462;28;83225;-92
2022/10/06 00:47:43;;;;;;;;;;;16.00;99.90;16.20;100613.00;;;;342975;28;91338;-91
2022/10/06 00:47:56;;;;;;;;;;;16.00;99.90;16.20;100618.00;;;;344797;28;82486;-91
2022/10/06 00:48:11;;;;;;;;;;;16.00;99.90;16.30;100621.00;;;;343463;28;86618;-92
2022/10/06 00:48:23;;;;;;;;;;;16.00;99.90;16.30;100614.00;;;;343891;28;83480;-91
2022/10/06 00:48:36;;;;;;;;;;;16.00;99.90;16.20;100617.00;;;;344757;28;86615;-91
2022/10/06 00:48:50;;;;;;;;;;;16.00;99.90;16.20;100614.00;;;;345285;28;82415;-92
2022/10/06 00:49:11;;;;;;;;;;;16.00;99.90;16.20;100615.00;;;;343258;28;88379;-91
2022/10/06 00:49:33;;;;;;;;;;;16.00;99.90;16.20;100610.00;;;;343715;28;82640;-92
2022/10/06 00:49:44;;;;;;;;;;;16.00;99.90;16.20;100617.00;;;;345041;28;88139;-91
2022/10/06 00:49:56;;;;;;;;;;;16.00;99.90;16.20;100616.00;;;;346505;28;82481;-92
2022/10/06 00:50:08;;;;;;;;;;;16.00;99.90;16.20;100614.00;;;;344469;28;88388;-91
2022/10/06 00:50:20;;;;;;;;;;;16.00;99.90;16.20;100614.00;;;;346090;28;82640;-91
2022/10/06 00:50:32;;;;;;;;;;;16.00;99.90;16.20;100617.00;;;;341383;28;89428;-91
2022/10/06 00:50:44;;;;;;;;;;;16.00;99.90;16.20;100622.00;;;;343735;28;83494;-92
2022/10/06 00:50:56;;;;;;;;;;;16.00;99.90;16.20;100615.00;;;;344413;28;88188;-92
2022/10/06 00:51:08;;;;;;;;;;;16.00;99.90;16.20;100615.00;;;;342374;28;82521;-90
2022/10/06 00:51:20;;;;;;;;;;;16.00;99.90;16.20;100612.00;;;;344717;28;89380;-92
2022/10/06 00:51:33;;;;;;;;;;;16.00;99.90;16.20;100617.00;;;;346663;28;82363;-91
2022/10/06 00:51:47;;;;;;;;;;;16.00;99.90;16.30;100620.00;;;;342043;28;89645;-91
2022/10/06 00:52:01;;;;;;;;;;;16.00;99.90;16.30;100620.00;;;;343743;28;82669;-92
2022/10/06 00:52:15;;;;;;;;;;;16.00;99.90;16.30;100617.00;;;;344691;28;93395;-91
2022/10/06 00:52:28;;;;;;;;;;;16.00;99.90;16.20;100618.00;;;;345667;28;83409;-91
2022/10/06 00:52:40;;;;;;;;;;;16.00;99.90;16.20;100624.00;;;;344782;28;88520;-90
2022/10/06 00:52:51;;;;;;;;;;;16.00;99.90;16.30;100611.00;;;;345478;28;83445;-92
2022/10/06 00:53:03;;;;;;;;;;;16.00;99.90;16.30;100618.00;;;;346405;28;91812;-92
2022/10/06 00:53:15;;;;;;;;;;;16.00;99.90;16.20;100619.00;;;;346625;28;82465;-91
2022/10/06 00:53:27;;;;;;;;;;;16.00;99.90;16.20;100616.00;;;;343521;28;88347;-91
2022/10/06 00:53:39;;;;;;;;;;;16.00;99.90;16.20;100618.00;;;;344012;28;83291;-92
2022/10/06 00:53:51;;;;;;;;;;;16.00;99.90;16.20;100621.00;;;;344213;28;88449;-91
2022/10/06 00:54:03;;;;;;;;;;;16.00;99.90;16.20;100622.00;;;;344998;28;83495;-91
2022/10/06 00:54:15;;;;;;;;;;;16.00;99.90;16.20;100607.00;;;;342171;28;89903;-91
2022/10/06 00:54:27;;;;;;;;;;;16.00;99.90;16.30;100616.00;;;;342466;28;82356;-91
2022/10/06 00:54:39;;;;;;;;;;;16.00;99.90;16.30;100618.00;;;;347284;28;92209;-92
2022/10/06 00:54:51;;;;;;;;;;;16.00;99.90;16.30;100625.00;;;;343475;28;83600;-92
2022/10/06 00:55:03;;;;;;;;;;;16.00;99.90;16.30;100620.00;;;;343510;28;89143;-92
2022/10/06 00:55:15;;;;;;;;;;;16.00;99.90;16.30;100622.00;;;;346244;28;82572;-91
2022/10/06 00:55:27;;;;;;;;;;;16.00;99.90;16.30;100615.00;;;;344824;28;91572;-91
2022/10/06 00:55:39;;;;;;;;;;;16.00;99.90;16.30;100620.00;;;;343809;28;83387;-91
2022/10/06 00:55:52;;;;;;;;;;;16.00;99.90;16.20;100612.00;;;;346333;28;91072;-91
2022/10/06 00:56:04;;;;;;;;;;;16.00;99.90;16.20;100616.00;;;;345245;28;83561;-92
2022/10/06 00:56:16;;;;;;;;;;;16.00;99.90;16.20;100615.00;;;;346150;28;90637;-91
2022/10/06 00:56:28;;;;;;;;;;;16.00;99.90;16.20;100620.00;;;;345105;28;82631;-91
2022/10/06 00:56:40;;;;;;;;;;;16.00;99.90;16.30;100622.00;;;;344359;28;90585;-91
2022/10/06 00:56:52;;;;;;;;;;;16.00;99.90;16.30;100620.00;;;;339506;28;82461;-92
2022/10/06 00:57:03;;;;;;;;;;;16.00;99.90;16.30;100623.00;;;;340539;28;89188;-91
2022/10/06 00:57:16;;;;;;;;;;;16.00;99.90;16.50;100618.00;;;;346526;28;82586;-91
2022/10/06 00:57:28;;;;;;;;;;;16.10;99.90;16.40;100627.00;;;;346309;28;88077;-92
2022/10/06 00:57:39;;;;;;;;;;;16.10;99.90;16.40;100631.00;;;;345503;28;82615;-92
2022/10/06 00:57:51;;;;;;;;;;;16.10;99.90;16.40;100613.00;;;;347755;28;88746;-91
2022/10/06 00:58:03;;;;;;;;;;;16.10;99.90;16.40;100618.00;;;;347882;27;83632;-91
2022/10/06 00:58:15;;;;;;;;;;;16.10;99.90;16.30;100620.00;;;;344068;28;89387;-91
2022/10/06 00:58:27;;;;;;;;;;;16.10;99.90;16.30;100626.00;;;;347975;28;83331;-92
2022/10/06 00:58:39;;;;;;;;;;;16.10;99.90;16.30;100615.00;;;;347811;27;86707;-91
2022/10/06 00:58:51;;;;;;;;;;;16.10;99.90;16.40;100622.00;;;;347863;28;83356;-90
2022/10/06 00:59:02;;;;;;;;;;;16.10;99.90;16.30;100626.00;;;;344905;28;89331;-92
2022/10/06 00:59:16;;;;;;;;;;;16.10;99.90;16.40;100619.00;;;;344923;28;83478;-92
2022/10/06 00:59:27;;;;;;;;;;;16.10;99.90;16.30;100621.00;;;;344868;28;87783;-91
2022/10/06 00:59:39;;;;;;;;;;;16.10;99.90;16.30;100623.00;;;;345467;28;83485;-91
2022/10/06 00:59:51;;;;;;;;;;;16.10;99.90;16.30;100621.00;;;;347694;28;88285;-91
2022/10/06 01:00:04;;;;;;;;;;;16.10;99.90;16.20;100631.00;;;;347979;27;83948;-91
2022/10/06 01:00:16;;;;;;;;;;;16.10;99.90;16.30;100622.00;;;;343375;28;88897;-92
2022/10/06 01:00:28;;;;;;;;;;;16.10;99.90;16.30;100617.00;;;;347869;28;83301;-90
2022/10/06 01:00:40;;;;;;;;;;;16.10;99.90;16.30;100625.00;;;;347714;28;86606;-91
2022/10/06 01:00:53;;;;;;;;;;;16.00;99.90;16.30;100627.00;;;;346679;28;83418;-91
2022/10/06 01:01:04;;;;;;;;;;;16.10;99.90;16.40;100616.00;;;;343336;28;89494;-91
2022/10/06 01:01:16;;;;;;;;;;;16.10;99.90;16.40;100626.00;;;;343620;28;83516;-92
2022/10/06 01:01:28;;;;;;;;;;;16.10;99.90;16.40;100626.00;;;;344642;28;91631;-92
2022/10/06 01:01:42;;;;;;;;;;;16.10;99.90;16.40;100620.00;;;;342495;28;82622;-92
2022/10/06 01:02:08;;;;;;;;;;;16.10;99.90;16.40;100620.00;;;;343300;28;90264;-92